createdAt,value
2022-11-11T00:00:06.907Z,5.67
2022-11-11T00:05:38.592Z,5.63
2022-11-11T00:11:10.577Z,5.57
2022-11-11T00:16:42.085Z,5.52
2022-11-11T00:22:14.130Z,5.47
2022-11-11T00:27:46.229Z,5.42
2022-11-11T00:33:17.896Z,5.36
2022-11-11T00:38:49.766Z,5.29
2022-11-11T00:44:21.495Z,5.23
2022-11-11T00:49:53.140Z,5.18
2022-11-11T00:55:24.935Z,5.12
2022-11-11T01:00:56.989Z,5.07
2022-11-11T01:06:28.356Z,5.02
2022-11-11T01:11:59.979Z,4.97
2022-11-11T01:17:31.802Z,4.92
2022-11-11T01:23:03.625Z,4.84
2022-11-11T01:28:35.342Z,4.79
2022-11-11T01:34:07.221Z,4.77
2022-11-11T01:39:39.449Z,4.75
2022-11-11T01:45:11.000Z,4.69
2022-11-11T01:50:42.711Z,4.63
2022-11-11T01:56:14.413Z,4.56
2022-11-11T02:01:46.381Z,4.49
2022-11-11T02:07:18.001Z,4.43
2022-11-11T02:15:03.207Z,3.90
2022-11-11T02:20:35.026Z,4.05
2022-11-11T02:26:06.556Z,4.08
2022-11-11T02:37:08.167Z,4.13
2022-11-11T02:42:39.976Z,4.14
2022-11-11T02:48:11.830Z,4.15
2022-11-11T02:53:43.701Z,4.16
2022-11-11T02:59:15.679Z,4.15
2022-11-11T03:04:47.363Z,4.13
2022-11-11T03:10:19.238Z,4.11
2022-11-11T03:15:51.052Z,4.08
2022-11-11T03:26:54.730Z,3.99
2022-11-11T03:32:26.452Z,3.96
2022-11-11T03:37:58.325Z,3.92
2022-11-11T03:43:30.338Z,3.88
2022-11-11T03:49:02.111Z,3.84
2022-11-11T03:54:33.812Z,3.79
2022-11-11T04:00:12.321Z,3.74
2022-11-11T04:05:37.417Z,3.70
2022-11-11T04:11:09.240Z,3.64
2022-11-11T04:22:10.549Z,3.53
2022-11-11T04:27:42.199Z,3.47
2022-11-11T04:33:13.883Z,3.43
2022-11-11T04:38:45.833Z,3.38
2022-11-11T04:44:17.645Z,3.33
2022-11-11T04:49:49.204Z,3.25
2022-11-11T04:55:22.268Z,3.14
2022-11-11T05:00:52.852Z,3.07
2022-11-11T05:06:24.559Z,3.05
2022-11-11T05:11:56.510Z,3.03
2022-11-11T05:17:28.075Z,3.01
2022-11-11T05:23:00.098Z,2.98
2022-11-11T05:28:31.814Z,2.92
2022-11-11T05:34:03.558Z,2.86
2022-11-11T05:39:35.433Z,2.80
2022-11-11T05:45:07.041Z,2.76
2022-11-11T05:50:38.929Z,2.74
2022-11-11T05:56:10.402Z,2.72
2022-11-11T06:01:42.187Z,2.72
2022-11-11T06:07:14.338Z,2.77
2022-11-11T06:12:46.583Z,2.81
2022-11-11T06:18:19.176Z,2.81
2022-11-11T06:23:51.078Z,2.82
2022-11-11T06:29:23.501Z,2.84
2022-11-11T06:34:55.548Z,2.87
2022-11-11T06:40:28.063Z,2.93
2022-11-11T06:46:00.058Z,3.03
2022-11-11T06:51:32.082Z,3.18
2022-11-11T06:57:08.377Z,3.36
2022-11-11T07:02:36.724Z,3.53
2022-11-11T07:08:08.934Z,3.66
2022-11-11T07:13:41.088Z,3.79
2022-11-11T07:19:13.380Z,3.91
2022-11-11T07:24:45.629Z,4.05
2022-11-11T07:30:17.851Z,4.20
2022-11-11T07:35:49.841Z,4.37
2022-11-11T07:41:22.552Z,4.54
2022-11-11T07:46:54.991Z,4.71
2022-11-11T07:52:27.106Z,4.92
2022-11-11T07:57:59.506Z,5.16
2022-11-11T08:03:31.458Z,5.39
2022-11-11T08:09:03.347Z,5.60
2022-11-11T08:14:41.735Z,5.75
2022-11-11T08:20:14.004Z,5.89
2022-11-11T08:25:46.262Z,6.05
2022-11-11T08:31:18.454Z,6.21
2022-11-11T08:36:50.653Z,6.38
2022-11-11T08:47:52.895Z,6.79
2022-11-11T08:53:25.339Z,7.02
2022-11-11T08:58:57.223Z,7.26
2022-11-11T09:04:44.325Z,7.53
2022-11-11T09:10:01.449Z,7.82
2022-11-11T09:15:33.277Z,8.14
2022-11-11T09:21:05.257Z,8.50
2022-11-11T09:26:37.521Z,8.92
2022-11-11T09:32:15.180Z,9.29
2022-11-11T09:37:47.550Z,9.62
2022-11-11T09:43:25.746Z,9.94
2022-11-11T09:48:57.467Z,10.21
2022-11-11T09:54:30.001Z,10.44
2022-11-11T10:00:02.010Z,10.63
2022-11-11T10:05:40.005Z,10.78
2022-11-11T10:11:18.204Z,10.91
2022-11-11T10:16:56.204Z,11.02
2022-11-11T10:22:34.285Z,11.09
2022-11-11T10:28:06.524Z,11.14
2022-11-11T10:33:38.791Z,11.22
2022-11-11T10:39:11.974Z,11.28
2022-11-11T10:44:44.101Z,11.41
2022-11-11T10:50:22.239Z,11.58
2022-11-11T10:55:53.885Z,11.69
2022-11-11T11:01:31.676Z,11.67
2022-11-11T11:07:09.576Z,11.64
2022-11-11T11:12:47.061Z,11.73
2022-11-11T11:18:25.208Z,11.69
2022-11-11T11:24:03.522Z,11.70
2022-11-11T11:29:41.255Z,11.85
2022-11-11T11:35:13.516Z,11.98
2022-11-11T11:40:51.150Z,12.07
2022-11-11T11:46:28.870Z,12.16
2022-11-11T11:52:06.920Z,12.25
2022-11-11T11:57:44.767Z,12.33
2022-11-11T12:03:22.409Z,12.39
2022-11-11T12:14:38.308Z,12.48
2022-11-11T12:20:18.277Z,12.45
2022-11-11T12:25:56.513Z,12.52
2022-11-11T12:31:34.863Z,12.58
2022-11-11T12:37:12.947Z,12.44
2022-11-11T12:42:46.496Z,12.32
2022-11-11T12:48:18.302Z,12.29
2022-11-11T12:53:56.269Z,12.26
2022-11-11T12:59:33.971Z,12.22
2022-11-11T13:05:05.967Z,12.12
2022-11-11T13:10:44.401Z,12.06
2022-11-11T13:16:22.366Z,12.00
2022-11-11T13:27:29.832Z,11.64
2022-11-11T13:33:07.966Z,11.63
2022-11-11T13:38:45.890Z,11.67
2022-11-11T13:44:23.665Z,11.71
2022-11-11T13:50:01.071Z,11.70
2022-11-11T13:55:39.439Z,11.66
2022-11-11T14:01:17.462Z,11.59
2022-11-11T14:06:55.611Z,11.55
2022-11-11T14:12:27.463Z,11.51
2022-11-11T14:17:59.610Z,11.55
2022-11-11T14:23:37.953Z,11.60
2022-11-11T14:29:09.997Z,11.64
2022-11-11T14:34:42.284Z,11.69
2022-11-11T14:40:14.739Z,11.74
2022-11-11T14:45:46.872Z,11.74
2022-11-11T14:51:19.000Z,11.69
2022-11-11T14:56:52.944Z,11.68
2022-11-11T15:02:25.079Z,11.66
2022-11-11T15:07:56.760Z,11.60
2022-11-11T15:13:28.600Z,11.49
2022-11-11T15:19:00.681Z,11.36
2022-11-11T15:24:32.696Z,11.24
2022-11-11T15:30:04.857Z,11.20
2022-11-11T15:32:17.749Z,10.70
2022-11-11T15:37:49.536Z,10.81
2022-11-11T15:43:21.963Z,10.78
2022-11-11T15:48:53.916Z,10.71
2022-11-11T15:54:25.791Z,10.62
2022-11-11T15:59:57.315Z,10.55
2022-11-11T16:02:27.798Z,10.04
2022-11-11T16:07:57.705Z,10.20
2022-11-11T16:13:26.695Z,10.24
2022-11-11T16:18:58.604Z,10.22
2022-11-11T16:24:30.442Z,10.18
2022-11-11T16:30:02.307Z,10.13
2022-11-11T16:35:34.126Z,10.05
2022-11-11T16:41:06.438Z,9.93
2022-11-11T16:46:38.578Z,9.80
2022-11-11T16:52:10.866Z,9.66
2022-11-11T16:57:42.696Z,9.53
2022-11-11T17:03:14.555Z,9.40
2022-11-11T17:08:47.005Z,9.28
2022-11-11T17:14:19.009Z,9.16
2022-11-11T17:19:50.971Z,9.05
2022-11-11T17:25:23.123Z,8.93
2022-11-11T17:31:01.780Z,8.83
2022-11-11T17:36:33.750Z,8.75
2022-11-11T17:42:05.962Z,8.66
2022-11-11T17:47:43.375Z,8.58
2022-11-11T17:53:15.385Z,8.49
2022-11-11T17:58:42.590Z,8.40
2022-11-11T18:04:14.423Z,8.32
2022-11-11T18:09:46.387Z,8.25
2022-11-11T18:15:18.780Z,8.18
2022-11-11T18:20:50.641Z,8.11
2022-11-11T18:26:22.817Z,8.05
2022-11-11T18:31:56.460Z,8.00
2022-11-11T18:37:27.597Z,7.95
2022-11-11T18:42:59.434Z,7.92
2022-11-11T18:48:31.390Z,7.90
2022-11-11T18:54:03.568Z,7.89
2022-11-11T18:59:35.188Z,7.88
2022-11-11T19:05:07.038Z,7.86
2022-11-11T19:10:38.965Z,7.81
2022-11-11T19:16:10.518Z,7.75
2022-11-11T19:21:42.678Z,7.71
2022-11-11T19:27:14.413Z,7.68
2022-11-11T19:32:45.946Z,7.65
2022-11-11T19:38:17.608Z,7.61
2022-11-11T19:43:49.458Z,7.56
2022-11-11T19:49:21.481Z,7.50
2022-11-11T19:54:53.230Z,7.45
2022-11-11T20:00:25.088Z,7.42
2022-11-11T20:05:56.651Z,7.38
2022-11-11T20:11:28.592Z,7.34
2022-11-11T20:17:00.172Z,7.26
2022-11-11T20:22:31.970Z,7.18
2022-11-11T20:28:03.632Z,7.11
2022-11-11T20:33:35.536Z,7.04
2022-11-11T20:39:07.346Z,6.97
2022-11-11T20:44:39.028Z,6.90
2022-11-11T20:50:11.029Z,6.86
2022-11-11T20:55:43.068Z,6.83
2022-11-11T21:01:15.925Z,6.79
2022-11-11T21:06:47.603Z,6.74
2022-11-11T21:12:19.529Z,6.69
2022-11-11T21:17:51.421Z,6.64
2022-11-11T21:23:23.965Z,6.59
2022-11-11T21:28:55.479Z,6.53
2022-11-11T21:34:27.134Z,6.46
2022-11-11T21:39:59.627Z,6.38
2022-11-11T21:45:31.991Z,6.31
2022-11-11T21:51:04.153Z,6.24
2022-11-11T21:56:36.178Z,6.19
2022-11-11T22:02:07.875Z,6.18
2022-11-11T22:07:39.975Z,6.18
2022-11-11T22:13:12.196Z,6.18
2022-11-11T22:18:44.879Z,6.17
2022-11-11T22:21:08.904Z,5.70
2022-11-11T22:26:40.822Z,5.88
2022-11-11T22:32:12.460Z,5.93
2022-11-11T22:37:44.399Z,5.96
2022-11-11T22:43:19.765Z,5.98
2022-11-11T22:45:39.754Z,5.63
2022-11-11T22:51:11.062Z,5.82
2022-11-11T22:56:42.845Z,5.91
2022-11-11T23:02:14.688Z,5.94
2022-11-11T23:07:46.580Z,5.93
2022-11-11T23:13:18.491Z,5.92
2022-11-11T23:18:49.976Z,5.89
2022-11-11T23:24:22.185Z,5.88
2022-11-11T23:29:53.539Z,5.85
2022-11-11T23:35:25.288Z,5.78
2022-11-11T23:40:56.706Z,5.70
2022-11-11T23:46:28.423Z,5.65
2022-11-11T23:52:00.377Z,5.60
2022-11-11T23:57:32.015Z,5.55
